EHRD/RTM METAR and TAF weather

Enter ICAO airport designator
Station Type Date Time Source
EHRD METAR 2019/08/21 22:25 UTC NOAA

EHRD 212225Z AUTO 11001KT 9999 NCD 13/12 Q1026 NOSIG


Station Type Date Time Source
EHRD Decoded METAR 2019/08/21 22:25 UTC NOAA

Station name not available
Aug 21, 2019 - 06:25 PM EDT / 2019.08.21 2225 UTC
Wind: from the ESE (110 degrees) at 1 MPH (1 KT):0
Visibility: greater than 7 mile(s):0
Temperature: 55 F (13 C)
Dew Point: 53 F (12 C)
Relative Humidity: 93%
Pressure (altimeter): 30.30 in. Hg (1026 hPa)
ob: EHRD 212225Z AUTO 11001KT 9999 NCD 13/12 Q1026 NOSIG
cycle: 22

Station Type Date Time Source
EHRD TAF 2019/08/21 18:27 UTC NOAA

TAF EHRD 211705Z 2118/2224 VRB03KT CAVOK
BECMG 2123/2202 15005KT
BECMG 2208/2211 25010KT
BECMG 2217/2220 20005KT

Example: see airport list